Time;durP1;ratioP1;P1;durP2;ratioP2;P2;SDS_P1;SDS_P2;PMS_P1;PMS_P2;Temp;Humidity;BMP_temperature;BMP_pressure;BME280_temperature;BME280_humidity;BME280_pressure;Samples;Min_cycle;Max_cycle;Signal;HPM_P1;HPM_P2
2022/06/22 00:00:42;;;;;;;4.97;2.77;;;;;;;14.71;100.00;97924.01;1702462;83;28013;-88
2022/06/22 00:03:09;;;;;;;7.25;2.90;;;;;;;14.61;100.00;97923.57;1678245;83;28121;-83
2022/06/22 00:05:39;;;;;;;5.28;3.45;;;;;;;14.55;100.00;97929.41;1703200;83;28093;-88
2022/06/22 00:08:12;;;;;;;7.20;3.50;;;;;;;14.50;100.00;97934.28;1698855;83;28088;-85
2022/06/22 00:10:47;;;;;;;5.95;3.15;;;;;;;14.44;100.00;97937.97;1701657;83;28087;-83
2022/06/22 00:13:23;;;;;;;6.33;3.10;;;;;;;14.40;100.00;97943.19;1708614;83;28001;-88
2022/06/22 00:16:02;;;;;;;7.70;3.62;;;;;;;14.39;100.00;97940.20;1672425;83;28129;-84
2022/06/22 00:18:34;;;;;;;8.38;3.45;;;;;;;14.36;100.00;97945.70;1687896;83;28095;-87
2022/06/22 00:21:07;;;;;;;6.72;3.58;;;;;;;14.33;100.00;97948.15;1696629;83;28083;-84
2022/06/22 00:23:41;;;;;;;6.45;3.27;;;;;;;14.30;100.00;97955.00;1667959;83;28095;-84
2022/06/22 00:26:20;;;;;;;10.38;3.02;;;;;;;14.32;100.00;97949.12;1701824;83;28119;-84
2022/06/22 00:29:06;;;;;;;6.42;3.20;;;;;;;14.30;100.00;97949.73;1701343;83;28091;-84
2022/06/22 00:31:50;;;;;;;9.00;3.60;;;;;;;14.32;100.00;97949.12;1695303;83;28101;-88
2022/06/22 00:34:23;;;;;;;6.83;2.87;;;;;;;14.32;100.00;97943.02;1699987;82;28110;-84
2022/06/22 00:37:04;;;;;;;7.97;3.62;;;;;;;14.30;100.00;97943.16;1664212;84;28072;-85
2022/06/22 00:39:39;;;;;;;5.00;3.20;;;;;;;14.30;100.00;97951.53;1680236;84;28198;-85
2022/06/22 00:42:14;;;;;;;10.58;3.17;;;;;;;14.31;100.00;97949.25;1680640;84;28190;-89
2022/06/22 00:45:10;;;;;;;6.35;2.70;;;;;;;14.33;100.00;97944.69;1680984;84;28044;-84
2022/06/22 00:48:01;;;;;;;8.63;2.80;;;;;;;14.31;100.00;97944.81;1679905;84;28122;-85
2022/06/22 00:50:43;;;;;;;5.90;2.55;;;;;;;14.29;100.00;97943.31;1689687;84;28495;-84
2022/06/22 00:53:19;;;;;;;7.55;3.10;;;;;;;14.26;100.00;97944.41;1683268;83;28171;-89
2022/06/22 00:55:58;;;;;;;9.08;2.90;;;;;;;14.28;100.00;97941.66;1684939;83;28216;-86
2022/06/22 00:58:31;;;;;;;5.42;2.08;;;;;;;14.29;100.00;97936.25;1682602;83;28139;-89
2022/06/22 01:01:04;;;;;;;3.98;2.05;;;;;;;14.32;100.00;97937.27;1682800;83;28091;-89
2022/06/22 01:03:41;;;;;;;5.12;2.42;;;;;;;14.36;100.00;97932.54;1679217;83;28093;-86
2022/06/22 01:06:32;;;;;;;5.62;2.17;;;;;;;14.41;100.00;97932.97;1680394;84;28089;-85
2022/06/22 01:09:11;;;;;;;7.80;2.65;;;;;;;14.40;100.00;97936.09;1686582;83;28073;-84
2022/06/22 01:12:22;;;;;;;5.83;2.47;;;;;;;14.37;100.00;97931.12;1684298;83;28083;-89
2022/06/22 01:15:11;;;;;;;4.70;2.05;;;;;;;14.33;100.00;97928.41;1684446;83;28098;-85
2022/06/22 01:18:07;;;;;;;6.70;2.22;;;;;;;14.32;100.00;97924.59;1687068;83;28092;-85
2022/06/22 01:21:12;;;;;;;6.00;2.17;;;;;;;14.21;100.00;97915.89;1689475;83;28077;-84
2022/06/22 01:23:54;;;;;;;5.33;2.25;;;;;;;14.22;100.00;97912.78;1658407;86;28118;-85
2022/06/22 01:26:24;;;;;;;;;;;;;;;14.29;100.00;97911.25;1668732;84;28017;-89
2022/06/22 01:29:09;;;;;;;4.58;2.67;;;;;;;14.25;100.00;97914.63;1673038;83;20228;-84
2022/06/22 01:31:35;;;;;;;2.83;2.27;;;;;;;14.18;100.00;97909.59;1690780;83;28031;-84
2022/06/22 01:34:02;;;;;;;4.87;2.25;;;;;;;14.16;100.00;97906.28;1684139;83;28087;-85
2022/06/22 01:36:31;;;;;;;4.05;2.27;;;;;;;14.08;100.00;97913.21;1685005;83;28126;-84
2022/06/22 01:39:02;;;;;;;5.85;2.10;;;;;;;14.10;100.00;97919.17;1688684;82;28265;-84
2022/06/22 01:41:41;;;;;;;7.17;2.17;;;;;;;14.08;100.00;97914.52;1688405;84;28087;-84
2022/06/22 01:44:37;;;;;;;4.97;2.00;;;;;;;14.10;100.00;97908.64;1685510;83;28098;-84
2022/06/22 01:47:37;;;;;;;5.33;2.30;;;;;;;14.15;100.00;97911.69;1682810;83;28130;-85
2022/06/22 01:50:34;;;;;;;4.50;1.92;;;;;;;14.08;100.00;97915.84;1683818;83;28084;-84
2022/06/22 01:53:10;;;;;;;4.28;2.02;;;;;;;14.08;100.00;97921.11;1682234;83;28086;-83
2022/06/22 01:55:55;;;;;;;3.98;1.90;;;;;;;14.07;100.00;97919.47;1687881;83;28084;-84
2022/06/22 01:58:33;;;;;;;3.60;2.12;;;;;;;14.03;100.00;97919.38;1683002;83;28114;-83
2022/06/22 02:01:11;;;;;;;3.65;1.90;;;;;;;14.02;100.00;97925.64;1684672;83;27998;-84
2022/06/22 02:03:42;;;;;;;4.67;2.05;;;;;;;14.00;100.00;97928.41;1685040;83;28068;-84
2022/06/22 02:09:03;;;;;;;3.55;2.20;;;;;;;13.92;100.00;97926.95;1694550;82;28035;-83
2022/06/22 02:11:33;;;;;;;3.10;2.25;;;;;;;13.90;100.00;97932.02;1698522;82;28101;-84
2022/06/22 02:14:25;;;;;;;3.50;2.12;;;;;;;13.82;100.00;97932.22;1693960;82;28126;-84
2022/06/22 02:16:56;;;;;;;9.50;2.35;;;;;;;13.75;100.00;97930.28;1695382;82;28015;-85
2022/06/22 02:19:28;;;;;;;3.67;2.00;;;;;;;13.70;100.00;97925.92;1698383;82;28017;-84
2022/06/22 02:21:57;;;;;;;4.47;2.27;;;;;;;13.67;100.00;97921.79;1690772;82;28132;-84
2022/06/22 02:24:27;;;;;;;5.17;3.37;;;;;;;13.58;100.00;97917.34;1694619;82;28072;-83
2022/06/22 02:27:00;;;;;;;3.62;2.47;;;;;;;13.54;100.00;97937.00;1692940;82;28074;-88
2022/06/22 02:29:29;;;;;;;5.65;2.42;;;;;;;13.53;100.00;97943.73;1700297;82;28145;-88
2022/06/22 02:31:59;;;;;;;5.28;2.42;;;;;;;13.53;100.00;97954.24;1692610;82;28091;-85
2022/06/22 02:34:26;;;;;;;3.42;1.98;;;;;;;13.48;100.00;97955.94;1689188;82;28084;-85
2022/06/22 02:36:54;;;;;;;3.52;2.22;;;;;;;13.45;100.00;97970.69;1688026;82;28029;-88
2022/06/22 02:39:25;;;;;;;4.08;2.27;;;;;;;13.38;100.00;97970.88;1693721;82;28097;-84
2022/06/22 02:44:45;;;;;;;7.60;3.15;;;;;;;13.40;100.00;97975.05;1693475;82;28113;-87
2022/06/22 02:47:32;;;;;;;9.05;3.58;;;;;;;13.40;100.00;97980.30;1690571;82;28010;-84
2022/06/22 02:50:11;;;;;;;5.05;3.20;;;;;;;13.36;100.00;97978.08;1692997;82;28135;-88
2022/06/22 02:52:41;;;;;;;7.78;2.90;;;;;;;13.34;100.00;97980.84;1695272;82;28133;-84
2022/06/22 02:55:16;;;;;;;5.78;2.60;;;;;;;13.34;100.00;97983.47;1685988;82;28064;-85
2022/06/22 02:57:57;;;;;;;7.08;2.80;;;;;;;13.31;100.00;97982.92;1697585;82;28067;-83
2022/06/22 03:00:29;;;;;;;7.33;2.85;;;;;;;13.32;100.00;97981.92;1696043;82;28070;-85
2022/06/22 03:03:02;;;;;;;5.92;3.05;;;;;;;13.33;100.00;97975.70;1693965;84;28075;-84
2022/06/22 03:05:28;;;;;;;4.25;2.90;;;;;;;13.34;100.00;97973.44;1688591;82;28089;-85
2022/06/22 03:08:01;;;;;;;17.48;3.22;;;;;;;13.33;100.00;97971.77;1692256;82;28011;-84
2022/06/22 03:10:38;;;;;;;5.00;2.80;;;;;;;13.30;100.00;97968.11;1701808;81;28056;-84
2022/06/22 03:13:13;;;;;;;5.65;2.95;;;;;;;13.30;100.00;97967.63;1705524;81;28027;-85
2022/06/22 03:15:39;;;;;;;4.80;2.52;;;;;;;13.32;100.00;97962.22;1699076;81;28134;-84
2022/06/22 03:18:08;;;;;;;6.37;2.80;;;;;;;13.32;100.00;97953.02;1711647;81;28195;-84
2022/06/22 03:20:41;;;;;;;7.42;3.30;;;;;;;13.35;100.00;97944.40;1679706;83;28143;-88
2022/06/22 03:23:13;;;;;;;4.28;2.47;;;;;;;13.45;100.00;97942.25;1699028;81;28202;-88
2022/06/22 03:25:55;;;;;;;4.78;2.30;;;;;;;13.53;100.00;97943.22;1704549;81;28106;-84
2022/06/22 03:28:28;;;;;;;4.53;2.58;;;;;;;13.62;100.00;97938.95;1698711;81;28190;-88
2022/06/22 03:30:58;;;;;;;7.72;2.67;;;;;;;13.68;100.00;97922.14;1706014;81;28170;-85
2022/06/22 03:33:44;;;;;;;6.40;2.62;;;;;;;13.77;100.00;97925.72;1699500;81;28022;-84
2022/06/22 03:36:23;;;;;;;7.72;2.98;;;;;;;13.89;100.00;97931.67;1705161;81;28093;-83
2022/06/22 03:38:56;;;;;;;5.15;2.30;;;;;;;14.04;100.00;97927.63;1701238;81;28009;-88
2022/06/22 03:41:28;;;;;;;7.97;2.95;;;;;;;14.21;100.00;97938.75;1705710;82;28047;-87
2022/06/22 03:43:56;;;;;;;;;;;;;;;14.44;100.00;97945.38;1706624;81;28098;-83
2022/06/22 03:46:24;;;;;;;;;;;;;;;14.66;100.00;97938.93;1712076;81;26051;-85
2022/06/22 03:49:03;;;;;;;4.78;2.62;;;;;;;14.85;100.00;97945.91;1705157;82;23861;-84
2022/06/22 03:51:38;;;;;;;6.15;2.22;;;;;;;15.06;100.00;97934.63;1706287;81;28120;-85
2022/06/22 03:54:16;;;;;;;7.47;2.37;;;;;;;15.37;100.00;97935.98;1707299;81;28061;-84
2022/06/22 03:56:56;;;;;;;5.15;2.55;;;;;;;15.74;100.00;97931.08;1703073;81;28085;-85
2022/06/22 03:59:23;;;;;;;6.55;2.42;;;;;;;16.11;100.00;97930.88;1699034;82;28026;-88
2022/06/22 04:01:52;;;;;;;7.70;2.77;;;;;;;16.43;100.00;97927.13;1710553;82;28143;-84
2022/06/22 04:04:23;;;;;;;5.17;2.83;;;;;;;16.60;100.00;97926.77;1707820;81;28168;-84
2022/06/22 04:06:54;;;;;;;6.50;2.58;;;;;;;16.80;100.00;97924.73;1710731;81;28094;-84
2022/06/22 04:09:23;;;;;;;4.22;2.27;;;;;;;17.03;100.00;97922.66;1707781;81;28109;-84
2022/06/22 04:11:56;;;;;;;3.52;1.90;;;;;;;17.04;100.00;97916.39;1708818;81;28005;-85
2022/06/22 04:14:45;;;;;;;5.40;1.87;;;;;;;17.09;100.00;97927.31;1706106;81;28016;-84
2022/06/22 04:17:36;;;;;;;5.08;2.10;;;;;;;17.10;100.00;97925.50;1715742;81;28076;-88
2022/06/22 04:20:06;;;;;;;4.33;2.40;;;;;;;17.44;100.00;97936.84;1706227;81;28099;-85
2022/06/22 04:22:36;;;;;;;5.53;2.12;;;;;;;17.74;100.00;97943.36;1708202;82;28013;-88
2022/06/22 04:25:08;;;;;;;5.30;2.27;;;;;;;17.82;100.00;97942.05;1707312;82;27995;-88
2022/06/22 04:27:41;;;;;;;4.35;2.05;;;;;;;17.91;100.00;97946.35;1701296;82;28003;-85
2022/06/22 04:30:14;;;;;;;4.33;1.92;;;;;;;18.09;100.00;97948.02;1713934;81;28165;-88
2022/06/22 04:32:59;;;;;;;4.47;1.77;;;;;;;18.21;100.00;97951.48;1703370;81;28117;-85
2022/06/22 04:35:48;;;;;;;3.90;1.90;;;;;;;18.42;100.00;97951.45;1708340;81;28159;-83
2022/06/22 04:38:48;;;;;;;3.90;2.00;;;;;;;18.60;100.00;97950.28;1701097;81;28167;-85
2022/06/22 04:41:27;;;;;;;5.35;1.95;;;;;;;18.71;100.00;97955.22;1704056;82;28106;-84
2022/06/22 04:43:57;;;;;;;3.75;1.95;;;;;;;18.68;100.00;97958.72;1703554;81;28075;-88
2022/06/22 04:46:30;;;;;;;3.60;2.10;;;;;;;18.55;100.00;97963.21;1702354;81;28179;-85
2022/06/22 04:49:08;;;;;;;3.15;1.85;;;;;;;18.40;100.00;97970.16;1706494;81;28569;-84
2022/06/22 04:51:38;;;;;;;3.15;1.80;;;;;;;18.29;100.00;97966.53;1700192;81;28073;-84
2022/06/22 04:54:22;;;;;;;2.10;1.27;;;;;;;18.25;100.00;97962.08;1706077;81;28121;-89
2022/06/22 04:56:53;;;;;;;2.95;1.27;;;;;;;18.14;100.00;97959.77;1702341;82;28424;-84
2022/06/22 04:59:20;;;;;;;3.75;1.40;;;;;;;18.11;100.00;97964.05;1707072;82;28091;-84
2022/06/22 05:01:53;;;;;;;2.37;1.57;;;;;;;18.16;100.00;97964.91;1707121;82;28084;-84
2022/06/22 05:04:24;;;;;;;3.27;1.55;;;;;;;18.16;100.00;97970.20;1711026;81;27993;-84
2022/06/22 05:07:28;;;;;;;1.90;1.30;;;;;;;18.11;100.00;97973.84;1711654;81;28059;-88
2022/06/22 05:10:04;;;;;;;5.35;2.02;;;;;;;17.99;100.00;97990.55;1694774;82;28074;-84
2022/06/22 05:12:34;;;;;;;3.12;1.70;;;;;;;17.80;100.00;98000.11;1692726;82;28078;-88
2022/06/22 05:15:04;;;;;;;3.62;1.70;;;;;;;17.65;100.00;98016.30;1688343;82;28039;-84
2022/06/22 05:17:39;;;;;;;2.22;1.62;;;;;;;17.51;100.00;98012.44;1692381;82;28106;-89
2022/06/22 05:20:20;;;;;;;2.50;1.40;;;;;;;17.39;100.00;98006.61;1689866;82;28122;-85
2022/06/22 05:22:49;;;;;;;2.70;1.40;;;;;;;17.35;100.00;98011.02;1691894;82;28185;-84
2022/06/22 05:25:17;;;;;;;3.67;1.35;;;;;;;17.34;100.00;98010.72;1689681;82;28148;-84
2022/06/22 05:28:11;;;;;;;4.60;1.82;;;;;;;17.37;100.00;98009.06;1695790;82;28098;-84
2022/06/22 05:30:41;;;;;;;1.87;1.60;;;;;;;17.39;100.00;98003.96;1686137;82;28065;-84
2022/06/22 05:33:11;;;;;;;3.08;1.60;;;;;;;17.39;100.00;98008.42;1689606;82;28074;-83
2022/06/22 05:35:44;;;;;;;3.15;1.82;;;;;;;17.42;100.00;98010.73;1686131;82;28086;-85
2022/06/22 05:38:10;;;;;;;2.70;1.50;;;;;;;17.46;100.00;98008.09;1686865;82;28031;-84
2022/06/22 05:40:40;;;;;;;3.87;1.65;;;;;;;17.48;100.00;98004.31;1695323;82;28204;-84
2022/06/22 05:43:08;;;;;;;2.77;1.72;;;;;;;17.54;100.00;98012.09;1687759;82;28099;-84
2022/06/22 05:45:38;;;;;;;3.77;1.80;;;;;;;17.57;100.00;98004.66;1692628;82;28118;-83
2022/06/22 05:48:05;;;;;;;2.45;1.57;;;;;;;17.60;100.00;98002.23;1692914;82;28167;-84
2022/06/22 05:50:36;;;;;;;3.10;1.82;;;;;;;17.65;100.00;98003.06;1693849;82;28067;-84
2022/06/22 05:53:22;;;;;;;4.22;1.85;;;;;;;17.65;100.00;98003.06;1689990;83;28106;-84
2022/06/22 05:56:01;;;;;;;3.80;1.57;;;;;;;17.72;100.00;98004.91;1693621;82;28082;-88
2022/06/22 05:58:46;;;;;;;4.45;1.50;;;;;;;17.80;100.00;98008.05;1694652;82;28103;-87
2022/06/22 06:01:16;;;;;;;5.40;1.80;;;;;;;17.82;100.00;98004.75;1691337;82;28068;-83
2022/06/22 06:03:49;;;;;;;2.65;1.70;;;;;;;17.84;100.00;98009.38;1689304;82;28205;-83
2022/06/22 06:06:25;;;;;;;3.20;1.80;;;;;;;17.91;100.00;98002.44;1691828;83;28188;-83
2022/06/22 06:08:55;;;;;;;3.22;1.50;;;;;;;17.96;100.00;98002.78;1693403;82;28103;-83
2022/06/22 06:11:24;;;;;;;3.25;1.50;;;;;;;18.03;100.00;97991.04;1692449;82;28096;-82
2022/06/22 06:13:58;;;;;;;3.33;1.55;;;;;;;18.02;100.00;97997.32;1692336;82;28055;-87
2022/06/22 06:16:26;;;;;;;;;;;;;;;18.03;100.00;98005.60;1703110;82;28091;-87
2022/06/22 06:18:56;;;;;;;2.33;1.30;;;;;;;18.09;100.00;97996.52;1690523;84;22242;-88
2022/06/22 06:21:28;;;;;;;2.98;1.50;;;;;;;18.16;100.00;97997.52;1691459;82;27993;-84
2022/06/22 06:23:58;;;;;;;2.25;1.40;;;;;;;18.20;100.00;98004.13;1693947;82;28002;-88
2022/06/22 06:29:49;;;;;;;7.58;1.80;;;;;;;18.24;100.00;98010.74;1689590;82;28110;-88
2022/06/22 06:32:37;;;;;;;3.20;1.47;;;;;;;18.32;100.00;98018.70;1692894;82;28114;-89
2022/06/22 06:35:16;;;;;;;3.45;1.52;;;;;;;18.37;100.00;98013.73;1694459;82;28145;-88
2022/06/22 06:37:58;;;;;;;3.52;1.30;;;;;;;18.42;100.00;98019.86;1694852;82;28210;-83
2022/06/22 06:40:49;;;;;;;1.37;1.05;;;;;;;18.47;99.92;98025.48;1694609;82;28082;-82
2022/06/22 06:43:25;;;;;;;3.00;1.43;;;;;;;18.51;99.63;98024.64;1694618;82;28098;-83
2022/06/22 06:45:53;;;;;;;13.80;2.05;;;;;;;18.50;99.21;98017.67;1664102;82;34472;-84
2022/06/22 06:48:22;;;;;;;3.08;1.30;;;;;;;18.54;98.90;98012.40;1694862;82;28141;-88
2022/06/22 06:50:52;;;;;;;4.05;1.37;;;;;;;18.58;98.66;98008.44;1685151;82;28058;-88
2022/06/22 06:53:31;;;;;;;2.27;1.02;;;;;;;18.61;98.35;98006.27;1686231;82;28094;-88
2022/06/22 06:56:30;;;;;;;2.35;1.45;;;;;;;18.70;98.08;98004.45;1692758;82;28083;-83
2022/06/22 06:59:03;;;;;;;2.52;1.25;;;;;;;18.67;97.41;98000.80;1694088;82;28098;-84
2022/06/22 07:01:33;;;;;;;2.05;1.07;;;;;;;18.72;96.83;98006.42;1687116;82;28131;-84
2022/06/22 07:04:07;;;;;;;3.55;0.80;;;;;;;18.50;95.89;98000.45;1691456;82;28090;-83
2022/06/22 07:06:34;;;;;;;1.92;1.02;;;;;;;18.57;95.74;98000.16;1686702;82;28133;-84
2022/06/22 07:09:13;;;;;;;2.60;0.85;;;;;;;18.74;95.65;97999.97;1685999;82;28130;-83
2022/06/22 07:11:48;;;;;;;1.80;1.40;;;;;;;18.73;95.09;98000.12;1684182;82;28078;-83
2022/06/22 07:14:27;;;;;;;3.75;1.37;;;;;;;18.75;94.73;97995.00;1693239;82;28072;-84
2022/06/22 07:16:57;;;;;;;4.35;1.67;;;;;;;18.93;94.85;97999.27;1688681;82;28190;-84
2022/06/22 07:19:29;;;;;;;1.55;0.98;;;;;;;19.10;95.02;97997.70;1695153;82;28083;-84
2022/06/22 07:22:02;;;;;;;3.10;1.42;;;;;;;19.03;94.41;98002.05;1690898;82;28107;-84
2022/06/22 07:24:38;;;;;;;2.98;1.25;;;;;;;19.05;94.15;97999.20;1696133;82;28060;-84
2022/06/22 07:27:28;;;;;;;2.75;1.50;;;;;;;19.20;94.07;97998.84;1690314;82;28101;-84
2022/06/22 07:30:04;;;;;;;4.12;1.35;;;;;;;19.38;94.00;98000.73;1692762;82;28088;-84
2022/06/22 07:32:57;;;;;;;4.95;1.55;;;;;;;19.57;93.79;97997.70;1686531;82;28173;-84
2022/06/22 07:35:29;;;;;;;5.03;1.37;;;;;;;19.68;93.67;98000.95;1696153;82;28094;-83
2022/06/22 07:38:05;;;;;;;4.05;1.50;;;;;;;19.54;92.93;97991.89;1694830;82;28116;-82
2022/06/22 07:41:18;;;;;;;3.70;1.27;;;;;;;19.55;92.56;97990.40;1693367;82;28011;-83
2022/06/22 07:43:11;;;;;;;1.50;0.90;;;;;;;19.77;92.53;97994.59;1679787;82;28220;-83
2022/06/22 07:45:38;;;;;;;3.27;0.88;;;;;;;19.87;91.57;97996.51;1691596;82;28116;-84
2022/06/22 07:48:17;;;;;;;1.67;0.70;;;;;;;19.89;90.50;98000.66;1685804;82;28099;-84
2022/06/22 07:50:52;;;;;;;2.35;0.50;;;;;;;19.98;89.84;98005.40;1686457;82;28077;-84
2022/06/22 07:53:31;;;;;;;3.20;0.70;;;;;;;20.05;88.92;97999.71;1696764;82;28076;-88
2022/06/22 07:56:01;;;;;;;1.92;0.80;;;;;;;20.14;88.32;98002.63;1634234;85;28069;-84
2022/06/22 07:58:36;;;;;;;1.67;0.60;;;;;;;20.30;87.25;98005.15;1656770;84;28123;-83
2022/06/22 08:01:06;;;;;;;1.47;0.60;;;;;;;20.38;86.26;98001.14;1654486;84;28034;-83
2022/06/22 08:03:42;;;;;;;2.83;0.40;;;;;;;20.43;84.84;97997.94;1661501;84;28082;-83
2022/06/22 08:06:11;;;;;;;1.15;0.50;;;;;;;20.47;83.09;97997.89;1629417;85;28060;-88
2022/06/22 08:08:41;;;;;;;1.15;0.50;;;;;;;20.56;81.86;97988.86;1656040;84;28085;-88
2022/06/22 08:11:37;;;;;;;1.32;0.50;;;;;;;20.50;80.19;97996.22;1647762;84;28109;-84
2022/06/22 08:14:10;;;;;;;1.30;0.50;;;;;;;20.47;78.76;97993.91;1710496;81;28112;-84
2022/06/22 08:16:40;;;;;;;1.15;0.53;;;;;;;20.43;77.13;97997.44;1703656;81;28095;-84
2022/06/22 08:19:07;;;;;;;2.25;0.80;;;;;;;20.56;76.89;97997.33;1700871;81;28082;-84
2022/06/22 08:21:37;;;;;;;1.27;0.90;;;;;;;20.74;76.89;97997.80;1705474;81;28098;-88
2022/06/22 08:24:06;;;;;;;1.62;0.70;;;;;;;20.96;77.00;98004.87;1702478;81;28158;-83
2022/06/22 08:26:32;;;;;;;1.42;0.82;;;;;;;21.12;76.96;98003.87;1705266;81;28042;-83
2022/06/22 08:29:00;;;;;;;1.57;0.57;;;;;;;21.25;76.80;98019.56;1706506;81;28119;-83
2022/06/22 08:31:29;;;;;;;1.82;0.70;;;;;;;21.33;76.43;98015.95;1712557;82;28159;-83
2022/06/22 08:33:59;;;;;;;1.35;0.80;;;;;;;21.37;75.65;98009.27;1707722;81;28166;-84
2022/06/22 08:36:28;;;;;;;3.15;0.62;;;;;;;21.34;74.70;97998.98;1708473;81;28161;-84
2022/06/22 08:39:06;;;;;;;1.32;0.60;;;;;;;21.30;74.05;97993.72;1703390;81;28192;-84
2022/06/22 08:41:53;;;;;;;2.17;0.93;;;;;;;21.32;73.40;98005.52;1706471;81;28035;-84
2022/06/22 08:44:34;;;;;;;2.10;0.65;;;;;;;21.32;72.63;97999.69;1710857;82;28094;-88
2022/06/22 08:47:15;;;;;;;;;;;;;;;21.41;72.36;97991.08;1708674;81;28080;-89
2022/06/22 08:49:51;;;;;;;3.42;0.70;;;;;;;21.48;71.94;97990.66;1711762;82;20207;-84
2022/06/22 08:52:42;;;;;;;2.65;0.72;;;;;;;21.56;71.71;97987.38;1704389;82;28023;-84
2022/06/22 08:55:14;;;;;;;1.37;0.70;;;;;;;21.71;71.69;97984.16;1707551;81;28065;-89
2022/06/22 08:58:02;;;;;;;3.20;1.07;;;;;;;21.92;71.82;97990.03;1707572;81;28008;-84
2022/06/22 09:00:44;;;;;;;1.85;1.00;;;;;;;21.92;71.19;97988.70;1707652;81;28087;-84
2022/06/22 09:03:43;;;;;;;2.85;0.88;;;;;;;22.05;71.01;97992.84;1702745;81;28174;-84
2022/06/22 09:06:36;;;;;;;4.22;0.80;;;;;;;22.19;70.76;97983.66;1713919;81;28458;-84
2022/06/22 09:09:15;;;;;;;1.15;0.57;;;;;;;22.31;70.07;97978.12;1707600;81;28052;-83
2022/06/22 09:11:50;;;;;;;2.62;0.90;;;;;;;22.23;68.78;97970.25;1673711;84;28111;-84
2022/06/22 09:14:29;;;;;;;2.67;0.55;;;;;;;22.07;67.47;97972.17;1672772;83;28086;-89
2022/06/22 09:17:25;;;;;;;3.72;0.80;;;;;;;22.02;66.83;97977.25;1682100;83;28100;-89
2022/06/22 09:20:10;;;;;;;1.35;0.68;;;;;;;22.06;66.47;97980.34;1675862;83;28138;-89
2022/06/22 09:22:56;;;;;;;;;;;;;;;22.04;65.77;97971.20;1683857;83;28051;-86
2022/06/22 09:25:29;;;;;;;2.92;0.90;;;;;;;22.14;65.54;97971.41;1674062;83;26738;-84
2022/06/22 09:28:11;;;;;;;1.55;0.72;;;;;;;22.19;64.73;97971.16;1686771;83;28148;-84
2022/06/22 09:30:56;;;;;;;3.22;0.88;;;;;;;22.04;63.56;97963.72;1668669;84;28019;-84
2022/06/22 09:33:49;;;;;;;3.17;0.88;;;;;;;22.02;63.23;97961.77;1639318;83;28111;-83
2022/06/22 09:36:37;;;;;;;4.00;0.93;;;;;;;22.06;62.98;97957.19;1677565;83;28206;-84
2022/06/22 09:39:10;;;;;;;1.80;0.60;;;;;;;22.13;62.45;97965.25;1676263;83;28063;-84
2022/06/22 09:41:58;;;;;;;1.92;0.70;;;;;;;22.22;62.24;97971.27;1683608;83;28072;-89
2022/06/22 09:44:34;;;;;;;3.37;0.50;;;;;;;22.31;61.91;97970.92;1673793;83;28084;-85
2022/06/22 09:47:25;;;;;;;1.47;0.60;;;;;;;22.45;61.76;97971.38;1682443;83;28072;-85
2022/06/22 09:50:29;;;;;;;2.02;0.55;;;;;;;22.70;61.61;97977.58;1684248;83;28154;-83
2022/06/22 09:53:27;;;;;;;1.42;0.72;;;;;;;22.80;61.25;97984.25;1688802;83;28095;-83
2022/06/22 09:56:25;;;;;;;2.08;0.80;;;;;;;22.65;60.06;97972.84;1675559;83;28201;-84
2022/06/22 09:59:27;;;;;;;1.57;0.50;;;;;;;22.43;58.84;97973.90;1683039;83;28200;-83
2022/06/22 10:02:32;;;;;;;1.85;0.68;;;;;;;22.29;57.85;97967.65;1678115;83;28075;-82
2022/06/22 10:05:20;;;;;;;1.85;0.68;;;;;;;22.28;57.46;97971.83;1651464;84;28109;-82
2022/06/22 10:07:59;;;;;;;1.55;0.80;;;;;;;22.26;57.21;97968.52;1645832;84;28192;-82
2022/06/22 10:10:49;;;;;;;2.42;0.82;;;;;;;22.30;57.01;97961.31;1673381;82;28068;-83
2022/06/22 10:13:31;;;;;;;1.77;0.72;;;;;;;22.38;56.95;97966.98;1693589;82;28123;-83
2022/06/22 10:16:07;;;;;;;3.27;0.85;;;;;;;22.34;56.74;97967.89;1671723;83;28094;-89
2022/06/22 10:19:10;;;;;;;2.87;0.80;;;;;;;22.30;56.34;97959.14;1687528;82;28142;-88
2022/06/22 10:21:58;;;;;;;2.10;1.00;;;;;;;22.31;56.14;97960.80;1684726;82;28086;-88
2022/06/22 10:24:31;;;;;;;2.20;0.90;;;;;;;22.34;56.08;97962.56;1692816;82;28131;-84
2022/06/22 10:27:22;;;;;;;2.80;1.20;;;;;;;22.59;56.55;97972.28;1682213;82;28075;-84
2022/06/22 10:30:27;;;;;;;1.98;0.90;;;;;;;22.78;56.83;97972.14;1690853;82;28124;-84
2022/06/22 10:33:06;;;;;;;3.30;0.93;;;;;;;23.09;57.37;97980.53;1692465;82;28082;-84
2022/06/22 10:35:57;;;;;;;2.58;1.00;;;;;;;23.29;57.56;97983.33;1692997;82;28114;-83
2022/06/22 10:38:37;;;;;;;4.08;0.90;;;;;;;23.33;57.24;97981.38;1695901;82;27993;-88
2022/06/22 10:47:04;;;;;;;4.00;1.30;;;;;;;23.48;56.66;97981.27;1694911;82;28101;-83
2022/06/22 10:49:49;;;;;;;2.72;0.93;;;;;;;23.56;56.31;97977.60;1688616;82;28130;-88
2022/06/22 10:52:32;;;;;;;2.27;1.05;;;;;;;23.76;56.36;97975.30;1693003;82;28141;-89
2022/06/22 10:55:31;;;;;;;3.75;0.93;;;;;;;23.87;56.07;97976.55;1694841;82;28051;-83
2022/06/22 10:58:16;;;;;;;2.77;0.80;;;;;;;23.95;55.82;97976.34;1687758;82;28106;-83
2022/06/22 11:01:15;;;;;;;3.72;0.90;;;;;;;24.11;55.74;97967.94;1691120;82;28079;-84
2022/06/22 11:04:04;;;;;;;4.50;1.25;;;;;;;23.86;54.45;97970.06;1687082;82;28184;-84
2022/06/22 11:06:56;;;;;;;5.40;1.10;;;;;;;23.85;54.27;97968.41;1686253;82;28468;-83
2022/06/22 11:09:39;;;;;;;1.30;0.80;;;;;;;24.04;54.38;97955.61;1685195;82;28027;-84
2022/06/22 11:12:30;;;;;;;1.87;0.90;;;;;;;24.06;54.19;97966.39;1703648;81;28115;-84
2022/06/22 11:15:03;;;;;;;2.17;1.10;;;;;;;23.98;53.68;97964.44;1718565;81;28080;-84
2022/06/22 11:17:55;;;;;;;2.33;1.07;;;;;;;23.88;53.28;97967.52;1707826;81;28094;-88
2022/06/22 11:20:25;;;;;;;2.90;1.10;;;;;;;23.68;52.51;97970.12;1709024;83;28085;-83
2022/06/22 11:22:58;;;;;;;3.17;0.95;;;;;;;23.48;51.91;97965.75;1706514;81;28161;-83
2022/06/22 11:31:32;;;;;;;2.40;1.05;;;;;;;23.72;51.59;97973.23;1700275;81;28037;-84
2022/06/22 11:34:31;;;;;;;4.90;1.17;;;;;;;23.91;51.59;97974.29;1707333;83;28064;-84
2022/06/22 11:37:04;;;;;;;4.60;1.17;;;;;;;24.21;51.97;97971.61;1697900;82;28064;-84
2022/06/22 11:39:57;;;;;;;3.20;1.10;;;;;;;24.37;51.58;97967.19;1702980;81;28241;-84
2022/06/22 11:42:39;;;;;;;2.37;1.32;;;;;;;24.41;51.40;97972.42;1700500;83;28070;-84
2022/06/22 11:48:18;;;;;;;3.37;1.20;;;;;;;24.98;52.00;97981.13;1708292;81;28034;-84
2022/06/22 11:50:57;;;;;;;2.92;1.10;;;;;;;24.95;51.28;97977.54;1707844;82;28113;-83
2022/06/22 11:53:58;;;;;;;3.08;1.22;;;;;;;24.76;50.72;97970.35;1709367;81;28083;-83
2022/06/22 11:56:31;;;;;;;3.20;1.10;;;;;;;24.46;50.08;97975.30;1700594;81;28170;-83
2022/06/22 11:59:03;;;;;;;2.10;1.25;;;;;;;24.27;49.66;97972.13;1703321;82;28108;-83
2022/06/22 12:01:42;;;;;;;2.05;0.98;;;;;;;24.06;49.07;97957.55;1690216;82;28106;-83
2022/06/22 12:04:21;;;;;;;2.35;1.00;;;;;;;23.86;48.69;97960.20;1707211;81;28076;-83
2022/06/22 12:07:09;;;;;;;2.00;1.10;;;;;;;23.74;48.51;97952.45;1698007;82;28095;-83
2022/06/22 12:10:04;;;;;;;1.80;0.80;;;;;;;23.64;48.37;97951.52;1683487;81;28125;-83
2022/06/22 12:12:51;;;;;;;3.17;0.90;;;;;;;23.59;48.26;97959.31;1687618;83;28091;-84
2022/06/22 12:15:21;;;;;;;2.02;0.82;;;;;;;23.48;48.05;97955.06;1684923;83;28113;-84
2022/06/22 12:18:17;;;;;;;2.85;0.95;;;;;;;23.38;47.95;97959.93;1685895;83;28110;-84
2022/06/22 12:21:20;;;;;;;2.58;1.05;;;;;;;23.34;47.86;97960.34;1687593;83;28064;-88
2022/06/22 12:24:11;;;;;;;1.00;0.88;;;;;;;23.42;47.96;97952.65;1682596;83;28090;-89
2022/06/22 12:26:56;;;;;;;1.45;0.85;;;;;;;23.62;48.10;97958.11;1686204;83;28065;-89
2022/06/22 12:29:31;;;;;;;2.40;0.90;;;;;;;23.84;48.31;97954.22;1685812;83;27991;-84
2022/06/22 12:32:01;;;;;;;3.92;0.82;;;;;;;23.82;48.11;97956.30;1683122;83;28110;-89
2022/06/22 12:34:37;;;;;;;1.22;0.90;;;;;;;23.92;48.18;97954.05;1686305;83;28084;-89
2022/06/22 12:37:13;;;;;;;3.33;0.90;;;;;;;24.02;48.11;97950.97;1686485;83;28071;-84
2022/06/22 12:39:43;;;;;;;2.85;0.98;;;;;;;24.05;48.07;97938.03;1685561;83;28252;-83
2022/06/22 12:42:29;;;;;;;1.50;0.75;;;;;;;24.11;48.13;97943.87;1686301;83;28130;-83
2022/06/22 12:45:17;;;;;;;1.70;1.10;;;;;;;24.26;48.26;97941.05;1675477;83;28169;-83